| time (UTC) | temp F | wind direction | speed MPH | gust MPH | rain 1hr in | rain 24hr in | rain mn in | humidity % | barometer mb |
| 20260906180848 | 104 | 282 | 2.0 | 3.0 | 0.00 | 0.00 | 0.00 | 36 | 1017.7 |
| 20260906180342 | 104 | 9 | 3.0 | 5.0 | 0.00 | 0.00 | 0.00 | 35 | 1017.8 |
| 20260906175839 | 103 | 4 | 4.0 | 7.0 | 0.00 | 0.00 | 0.00 | 36 | 1018.0 |
| 20260906175335 | 102 | 180 | 2.0 | 5.0 | 0.00 | 0.00 | 0.00 | 36 | 1018.3 |
| 20260906174833 | 102 | 21 | 3.0 | 7.0 | 0.00 | 0.00 | 0.00 | 37 | 1018.3 |
| 20260906174333 | 102 | 62 | 5.0 | 10.0 | 0.00 | 0.00 | 0.00 | 37 | 1018.3 |
| 20260906173828 | 101 | 107 | 0.0 | 5.0 | 0.00 | 0.00 | 0.00 | 37 | 1018.5 |
| 20260906173323 | 101 | 283 | 5.0 | 9.0 | 0.00 | 0.00 | 0.00 | 39 | 1018.6 |
| 20260906172822 | 101 | 225 | 0.0 | 5.0 | 0.00 | 0.00 | 0.00 | 39 | 1019.0 |
| 20260906172319 | 100 | 96 | 2.0 | 11.0 | 0.00 | 0.00 | 0.00 | 39 | 1019.0 |
| 20260906171814 | 100 | 278 | 1.0 | 5.0 | 0.00 | 0.00 | 0.00 | 40 | 1018.9 |
| 20260906171309 | 100 | 40 | 2.0 | 6.0 | 0.00 | 0.00 | 0.00 | 38 | 1019.2 |
| 20260906170804 | 102 | 333 | 6.0 | 6.0 | 0.00 | 0.00 | 0.00 | 38 | 1019.2 |
| 20260906170301 | 102 | 0 | 0.0 | 4.0 | 0.00 | 0.00 | 0.00 | 38 | 1019.4 |
| 20260906165756 | 101 | 315 | 0.0 | 2.0 | 0.00 | 0.00 | 0.00 | 41 | 1019.5 |
| 20260906165255 | 99 | 60 | 0.0 | 6.0 | 0.00 | 0.00 | 0.00 | 43 | 1019.4 |
| 20260906164749 | 100 | 352 | 1.0 | 6.0 | 0.00 | 0.00 | 0.00 | 42 | 1019.6 |
| 20260906164244 | 101 | 267 | 5.0 | 5.0 | 0.00 | 0.00 | 0.00 | 42 | 1019.6 |
| 20260906163740 | 99 | 52 | 0.0 | 3.0 | 0.00 | 0.00 | 0.00 | 42 | 1019.8 |
| 20260906163236 | 98 | 315 | 5.0 | 6.0 | 0.00 | 0.00 | 0.00 | 45 | 1019.8 |
| 20260906162733 | 96 | 257 | 3.0 | 7.0 | 0.00 | 0.00 | 0.00 | 46 | 1019.7 |
| 20260906162227 | 97 | 324 | 0.0 | 5.0 | 0.00 | 0.00 | 0.00 | 46 | 1019.9 |
| 20260906161722 | 96 | 309 | 5.0 | 5.0 | 0.00 | 0.00 | 0.00 | 46 | 1020.0 |
| 20260906161221 | 96 | 213 | 2.0 | 4.0 | 0.00 | 0.00 | 0.00 | 46 | 1019.9 |
| 20260906160720 | 96 | 275 | 4.0 | 6.0 | 0.00 | 0.00 | 0.00 | 47 | 1020.1 |
| 20260906160220 | 96 | 56 | 2.0 | 6.0 | 0.00 | 0.00 | 0.00 | 45 | 1020.0 |
| 20260906155717 | 96 | 335 | 6.0 | 7.0 | 0.00 | 0.00 | 0.00 | 46 | 1019.9 |
| 20260906155212 | 96 | 270 | 3.0 | 6.0 | 0.00 | 0.00 | 0.00 | 46 | 1019.8 |
| 20260906154708 | 95 | 0 | 0.0 | 3.0 | 0.00 | 0.00 | 0.00 | 47 | 1019.8 |
| 20260906154208 | 94 | 265 | 4.0 | 7.0 | 0.00 | 0.00 | 0.00 | 49 | 1019.7 |
| 20260906153706 | 95 | 259 | 3.0 | 8.0 | 0.00 | 0.00 | 0.00 | 48 | 1019.9 |
| 20260906153201 | 94 | 287 | 3.0 | 8.0 | 0.00 | 0.00 | 0.00 | 49 | 1019.9 |
| 20260906152657 | 93 | 291 | 4.0 | 10.0 | 0.00 | 0.00 | 0.00 | 51 | 1019.7 |
| 20260906152151 | 93 | 328 | 2.0 | 6.0 | 0.00 | 0.00 | 0.00 | 50 | 1019.9 |
| 20260906151645 | 93 | 270 | 4.0 | 5.0 | 0.00 | 0.00 | 0.00 | 51 | 1019.8 |
| 20260906151142 | 93 | 270 | 3.0 | 6.0 | 0.00 | 0.00 | 0.00 | 52 | 1019.6 |
| 20260906150636 | 91 | 257 | 1.0 | 7.0 | 0.00 | 0.00 | 0.00 | 53 | 1019.8 |
| 20260906150131 | 91 | 283 | 2.0 | 5.0 | 0.00 | 0.00 | 0.00 | 53 | 1019.6 |
| 20260906145625 | 91 | 264 | 3.0 | 5.0 | 0.00 | 0.00 | 0.00 | 53 | 1019.5 |
| 20260906145119 | 91 | 243 | 1.0 | 7.0 | 0.00 | 0.00 | 0.00 | 54 | 1019.8 |
| 20260906144614 | 90 | 282 | 3.0 | 7.0 | 0.00 | 0.00 | 0.00 | 55 | 1019.7 |
| 20260906144109 | 89 | 262 | 3.0 | 6.0 | 0.00 | 0.00 | 0.00 | 57 | 1019.8 |
| 20260906143604 | 89 | 270 | 6.0 | 7.0 | 0.00 | 0.00 | 0.00 | 58 | 1019.9 |
| 20260906143101 | 87 | 225 | 5.0 | 7.0 | 0.00 | 0.00 | 0.00 | 60 | 1019.9 |
| 20260906142600 | 87 | 225 | 3.0 | 7.0 | 0.00 | 0.00 | 0.00 | 60 | 1019.8 |
| 20260906142055 | 87 | 213 | 7.0 | 8.0 | 0.00 | 0.00 | 0.00 | 61 | 1019.8 |
| 20260906141554 | 87 | 225 | 3.0 | 8.0 | 0.00 | 0.00 | 0.00 | 62 | 1020.1 |
| 20260906141050 | 86 | 217 | 6.0 | 7.0 | 0.00 | 0.00 | 0.00 | 63 | 1019.8 |
| 20260906140549 | 86 | 203 | 4.0 | 7.0 | 0.00 | 0.00 | 0.00 | 63 | 1019.9 |
| 20260906140043 | 86 | 209 | 4.0 | 7.0 | 0.00 | 0.00 | 0.00 | 63 | 1019.8 |
| 20260906135540 | 85 | 212 | 5.0 | 7.0 | 0.00 | 0.00 | 0.00 | 64 | 1019.7 |
| 20260906135036 | 85 | 236 | 6.0 | 7.0 | 0.00 | 0.00 | 0.00 | 64 | 1019.6 |
| 20260906134531 | 85 | 219 | 6.0 | 8.0 | 0.00 | 0.00 | 0.00 | 65 | 1019.5 |
| 20260906134026 | 84 | 226 | 7.0 | 7.0 | 0.00 | 0.00 | 0.00 | 65 | 1019.6 |
| 20260906133522 | 84 | 199 | 4.0 | 6.0 | 0.00 | 0.00 | 0.00 | 66 | 1019.5 |
| 20260906133017 | 84 | 209 | 6.0 | 6.0 | 0.00 | 0.00 | 0.00 | 65 | 1019.3 |
| 20260906132512 | 83 | 191 | 4.0 | 6.0 | 0.00 | 0.00 | 0.00 | 66 | 1019.4 |
| 20260906132008 | 83 | 213 | 4.0 | 5.0 | 0.00 | 0.00 | 0.00 | 67 | 1019.3 |
| 20260906131503 | 83 | 213 | 4.0 | 5.0 | 0.00 | 0.00 | 0.00 | 67 | 1019.3 |
| 20260906130958 | 82 | 166 | 3.0 | 5.0 | 0.00 | 0.00 | 0.00 | 68 | 1019.2 |
| 20260906130458 | 82 | 169 | 4.0 | 5.0 | 0.00 | 0.00 | 0.00 | 69 | 1019.2 |
| 20260906125952 | 81 | 187 | 3.0 | 3.0 | 0.00 | 0.00 | 0.00 | 71 | 1019.1 |
| 20260906125450 | 79 | 175 | 2.0 | 3.0 | 0.00 | 0.00 | 0.00 | 73 | 1019.3 |
| 20260906124949 | 79 | 180 | 2.0 | 3.0 | 0.00 | 0.00 | 0.00 | 74 | 1019.2 |
| 20260906124445 | 78 | 203 | 1.0 | 3.0 | 0.00 | 0.00 | 0.00 | 75 | 1019.2 |
| 20260906123939 | 78 | 216 | 2.0 | 3.0 | 0.00 | 0.00 | 0.00 | 76 | 1019.0 |
| 20260906123439 | 77 | 198 | 2.0 | 3.0 | 0.00 | 0.00 | 0.00 | 76 | 1019.1 |
| 20260906122933 | 77 | 219 | 3.0 | 3.0 | 0.00 | 0.00 | 0.00 | 76 | 1018.9 |
| 20260906122428 | 77 | 196 | 2.0 | 3.0 | 0.00 | 0.00 | 0.00 | 77 | 1018.9 |
| 20260906121925 | 76 | 202 | 2.0 | 2.0 | 0.00 | 0.00 | 0.00 | 77 | 1019.1 |
| 20260906121421 | 76 | 195 | 2.0 | 2.0 | 0.00 | 0.00 | 0.00 | 77 | 1018.9 |
| 20260906120917 | 76 | 215 | 0.0 | 2.0 | 0.00 | 0.00 | 0.00 | 77 | 1018.7 |
| 20260906120412 | 77 | 190 | 2.0 | 2.0 | 0.00 | 0.00 | 0.00 | 76 | 1018.7 |
| 20260906115908 | 77 | 209 | 1.0 | 3.0 | 0.00 | 0.00 | 0.00 | 76 | 1018.6 |
| 20260906115404 | 77 | 187 | 2.0 | 3.0 | 0.00 | 0.00 | 0.00 | 75 | 1018.6 |
| 20260906114903 | 77 | 180 | 2.0 | 3.0 | 0.00 | 0.00 | 0.00 | 75 | 1018.5 |
| 20260906114358 | 77 | 180 | 3.0 | 4.0 | 0.00 | 0.00 | 0.00 | 75 | 1018.5 |
| 20260906113854 | 77 | 180 | 2.0 | 4.0 | 0.00 | 0.00 | 0.00 | 75 | 1018.6 |
| 20260906113352 | 77 | 174 | 3.0 | 5.0 | 0.00 | 0.00 | 0.00 | 76 | 1018.3 |
| 20260906112848 | 75 | 178 | 3.0 | 4.0 | 0.00 | 0.00 | 0.00 | 80 | 1018.6 |
| 20260906112344 | 75 | 170 | 2.0 | 3.0 | 0.00 | 0.00 | 0.00 | 80 | 1018.4 |
| 20260906111843 | 75 | 168 | 0.0 | 2.0 | 0.00 | 0.00 | 0.00 | 80 | 1018.2 |
| 20260906111337 | 74 | 195 | 0.0 | 1.0 | 0.00 | 0.00 | 0.00 | 81 | 1018.3 |
| 20260906110827 | 74 | 203 | 0.0 | 1.0 | 0.00 | 0.00 | 0.00 | 81 | 1018.2 |
| 20260906110323 | 74 | 198 | 0.0 | 2.0 | 0.00 | 0.00 | 0.00 | 81 | 1018.2 |
| 20260906105822 | 75 | 180 | 2.0 | 2.0 | 0.00 | 0.00 | 0.00 | 80 | 1018.2 |
| 20260906105318 | 75 | 180 | 2.0 | 3.0 | 0.00 | 0.00 | 0.00 | 80 | 1018.1 |
| 20260906104813 | 75 | 180 | 1.0 | 2.0 | 0.00 | 0.00 | 0.00 | 80 | 1018.2 |
| 20260906104311 | 75 | 188 | 0.0 | 1.0 | 0.00 | 0.00 | 0.00 | 80 | 1018.2 |
| 20260906103809 | 75 | 185 | 1.0 | 2.0 | 0.00 | 0.00 | 0.00 | 79 | 1018.3 |
| 20260906103303 | 75 | 192 | 1.0 | 1.0 | 0.00 | 0.00 | 0.00 | 78 | 1018.2 |
| 20260906102759 | 76 | 246 | 0.0 | 0.0 | 0.00 | 0.00 | 0.00 | 77 | 1018.1 |
| 20260906102257 | 76 | 246 | 0.0 | 2.0 | 0.00 | 0.00 | 0.00 | 77 | 1018.1 |
| 20260906101753 | 77 | 186 | 0.0 | 2.0 | 0.00 | 0.00 | 0.00 | 76 | 1018.2 |
| 20260906101248 | 76 | 148 | 2.0 | 4.0 | 0.00 | 0.00 | 0.00 | 77 | 1018.3 |
| 20260906100744 | 75 | 150 | 2.0 | 2.0 | 0.00 | 0.00 | 0.00 | 80 | 1018.0 |
| 20260906100243 | 75 | 215 | 0.0 | 2.0 | 0.00 | 0.00 | 0.00 | 80 | 1018.2 |
| 20260906095739 | 76 | 209 | 0.0 | 1.0 | 0.00 | 0.00 | 0.00 | 80 | 1018.0 |
| 20260906095234 | 75 | 180 | 1.0 | 2.0 | 0.00 | 0.00 | 0.00 | 80 | 1018.1 |
| 20260906094733 | 75 | 194 | 1.0 | 1.0 | 0.00 | 0.00 | 0.00 | 80 | 1018.0 |
| 20260906094228 | 75 | 237 | 2.0 | 2.0 | 0.00 | 0.00 | 0.00 | 81 | 1018.1 |
| 20260906093725 | 75 | 195 | 0.0 | 1.0 | 0.00 | 0.00 | 0.00 | 80 | 1018.1 |
| 20260906093219 | 75 | 194 | 1.0 | 1.0 | 0.00 | 0.00 | 0.00 | 79 | 1017.9 |
| 20260906092715 | 75 | 286 | 0.0 | 1.0 | 0.00 | 0.00 | 0.00 | 79 | 1018.1 |
| 20260906092209 | 75 | 286 | 1.0 | 2.0 | 0.00 | 0.00 | 0.00 | 79 | 1017.8 |
| 20260906091705 | 75 | 325 | 0.0 | 3.0 | 0.00 | 0.00 | 0.00 | 79 | 1018.0 |
| 20260906091201 | 75 | 0 | 0.0 | 2.0 | 0.00 | 0.00 | 0.00 | 80 | 1017.8 |
| 20260906090656 | 75 | 328 | 2.0 | 2.0 | 0.00 | 0.00 | 0.00 | 80 | 1017.8 |
| 20260906090155 | 75 | 279 | 0.0 | 2.0 | 0.00 | 0.00 | 0.00 | 80 | 1017.9 |
| 20260906085655 | 74 | 0 | 2.0 | 3.0 | 0.00 | 0.00 | 0.00 | 82 | 1017.9 |
| 20260906085149 | 74 | 286 | 0.0 | 2.0 | 0.00 | 0.00 | 0.00 | 82 | 1017.6 |
| 20260906084644 | 74 | 270 | 0.0 | 0.0 | 0.00 | 0.00 | 0.00 | 82 | 1017.5 |
| 20260906084143 | 74 | 328 | 2.0 | 2.0 | 0.00 | 0.00 | 0.00 | 81 | 1017.6 |
| 20260906083638 | 75 | 279 | 0.0 | 1.0 | 0.00 | 0.00 | 0.00 | 80 | 1017.6 |
| 20260906083133 | 75 | 112 | 0.0 | 2.0 | 0.00 | 0.00 | 0.00 | 80 | 1017.5 |
| 20260906082629 | 75 | 0 | 0.0 | 3.0 | 0.00 | 0.00 | 0.00 | 79 | 1017.4 |
| 20260906082124 | 76 | 0 | 2.0 | 3.0 | 0.00 | 0.00 | 0.00 | 79 | 1017.5 |
| 20260906081620 | 75 | 45 | 2.0 | 3.0 | 0.00 | 0.00 | 0.00 | 79 | 1017.5 |
| 20260906081115 | 75 | 5 | 1.0 | 2.0 | 0.00 | 0.00 | 0.00 | 80 | 1017.5 |
| 20260906080612 | 75 | 337 | 0.0 | 2.0 | 0.00 | 0.00 | 0.00 | 79 | 1017.6 |
| 20260906080107 | 75 | 173 | 0.0 | 0.0 | 0.00 | 0.00 | 0.00 | 80 | 1017.6 |
| 20260906075601 | 74 | 148 | 2.0 | 2.0 | 0.00 | 0.00 | 0.00 | 82 | 1017.5 |
| 20260906075055 | 75 | 180 | 1.0 | 1.0 | 0.00 | 0.00 | 0.00 | 81 | 1017.6 |
| 20260906074550 | 75 | 203 | 0.0 | 1.0 | 0.00 | 0.00 | 0.00 | 80 | 1017.5 |
| 20260906074048 | 75 | 337 | 0.0 | 0.0 | 0.00 | 0.00 | 0.00 | 80 | 1017.6 |
| 20260906073538 | 75 | 337 | 0.0 | 0.0 | 0.00 | 0.00 | 0.00 | 80 | 1017.8 |
| 20260906073034 | 75 | 345 | 1.0 | 2.0 | 0.00 | 0.00 | 0.00 | 79 | 1017.9 |
| 20260906072529 | 75 | 352 | 2.0 | 3.0 | 0.00 | 0.00 | 0.00 | 79 | 1017.8 |
| 20260906072026 | 75 | 345 | 0.0 | 2.0 | 0.00 | 0.00 | 0.00 | 79 | 1017.9 |
| 20260906071522 | 75 | 261 | 0.0 | 1.0 | 0.00 | 0.00 | 0.00 | 79 | 1018.0 |
| 20260906071016 | 75 | 348 | 1.0 | 2.0 | 0.00 | 0.00 | 0.00 | 79 | 1017.8 |
| 20260906070513 | 75 | 270 | 0.0 | 1.0 | 0.00 | 0.00 | 0.00 | 79 | 1017.7 |
| 20260906070008 | 75 | 254 | 0.0 | 1.0 | 0.00 | 0.00 | 0.00 | 80 | 1018.0 |
| 20260906065508 | 75 | 270 | 0.0 | 0.0 | 0.00 | 0.00 | 0.00 | 80 | 1018.0 |
| 20260906065003 | 75 | 270 | 0.0 | 1.0 | 0.00 | 0.00 | 0.00 | 80 | 1017.8 |
| 20260906064459 | 75 | 203 | 0.0 | 2.0 | 0.00 | 0.00 | 0.00 | 80 | 1018.0 |
| 20260906063954 | 75 | 195 | 1.0 | 1.0 | 0.00 | 0.00 | 0.00 | 79 | 1017.9 |
| 20260906063449 | 75 | 203 | 0.0 | 1.0 | 0.00 | 0.00 | 0.00 | 79 | 1018.0 |
| 20260906062944 | 76 | 270 | 0.0 | 1.0 | 0.00 | 0.00 | 0.00 | 79 | 1017.9 |
| 20260906062439 | 76 | 194 | 0.0 | 2.0 | 0.00 | 0.00 | 0.00 | 76 | 1017.9 |
| 20260906061933 | 77 | 180 | 0.0 | 1.0 | 0.00 | 0.00 | 0.00 | 75 | 1018.0 |
| 20260906061424 | 77 | 240 | 0.0 | 0.0 | 0.00 | 0.00 | 0.00 | 75 | 1018.1 |
| 20260906060918 | 77 | 294 | 0.0 | 1.0 | 0.00 | 0.00 | 0.00 | 74 | 1017.9 |
| 20260906060415 | 78 | 0 | 0.0 | 0.0 | 0.00 | 0.00 | 0.00 | 73 | 1017.9 |
| 20260906055912 | 78 | 0 | 0.0 | 2.0 | 0.00 | 0.00 | 0.00 | 72 | 1017.9 |
| 20260906055407 | 78 | 279 | 0.0 | 2.0 | 0.00 | 0.00 | 0.00 | 72 | 1018.0 |
| 20260906054902 | 77 | 337 | 0.0 | 2.0 | 0.00 | 0.00 | 0.00 | 74 | 1017.9 |
| 20260906054357 | 77 | 279 | 0.0 | 0.0 | 0.00 | 0.00 | 0.00 | 75 | 1017.8 |
| 20260906053853 | 77 | 279 | 0.0 | 0.0 | 0.00 | 0.00 | 0.00 | 76 | 1017.9 |
| 20260906053349 | 77 | 279 | 0.0 | 0.0 | 0.00 | 0.00 | 0.00 | 75 | 1017.7 |
| 20260906052844 | 77 | 279 | 0.0 | 1.0 | 0.00 | 0.00 | 0.00 | 74 | 1017.8 |
| 20260906052341 | 78 | 270 | 0.0 | 1.0 | 0.00 | 0.00 | 0.00 | 74 | 1017.7 |
| 20260906051837 | 78 | 229 | 0.0 | 2.0 | 0.00 | 0.00 | 0.00 | 73 | 1017.8 |
| 20260906051337 | 79 | 270 | 0.0 | 0.0 | 0.00 | 0.00 | 0.00 | 72 | 1017.6 |
| 20260906050833 | 80 | 246 | 1.0 | 1.0 | 0.00 | 0.00 | 0.00 | 71 | 1017.7 |
| 20260906050327 | 80 | 0 | 0.0 | 2.0 | 0.00 | 0.00 | 0.00 | 70 | 1017.6 |
| 20260906045826 | 80 | 41 | 2.0 | 3.0 | 0.00 | 0.00 | 0.00 | 70 | 1017.8 |
| 20260906045320 | 80 | 60 | 3.0 | 3.0 | 0.00 | 0.00 | 0.00 | 69 | 1017.8 |
| 20260906044816 | 82 | 54 | 3.0 | 4.0 | 0.00 | 0.00 | 0.00 | 66 | 1017.7 |
| 20260906044311 | 82 | 140 | 0.0 | 2.0 | 0.00 | 0.00 | 0.00 | 64 | 1017.6 |
| 20260906043807 | 82 | 188 | 0.0 | 1.0 | 0.00 | 0.00 | 0.00 | 64 | 1017.7 |
| 20260906043303 | 82 | 194 | 0.0 | 0.0 | 0.00 | 0.00 | 0.00 | 63 | 1017.7 |
| 20260906042757 | 82 | 192 | 0.0 | 1.0 | 0.00 | 0.00 | 0.00 | 63 | 1017.8 |
| 20260906042256 | 82 | 180 | 1.0 | 2.0 | 0.00 | 0.00 | 0.00 | 63 | 1017.7 |
| 20260906041752 | 82 | 195 | 0.0 | 2.0 | 0.00 | 0.00 | 0.00 | 63 | 1017.8 |
| 20260906041247 | 83 | 261 | 0.0 | 2.0 | 0.00 | 0.00 | 0.00 | 62 | 1017.8 |
| 20260906040742 | 83 | 228 | 2.0 | 2.0 | 0.00 | 0.00 | 0.00 | 61 | 1017.5 |
| 20260906040237 | 82 | 218 | 2.0 | 3.0 | 0.00 | 0.00 | 0.00 | 63 | 1017.8 |
| 20260906035733 | 81 | 180 | 0.0 | 2.0 | 0.00 | 0.00 | 0.00 | 66 | 1017.9 |
| 20260906035228 | 80 | 162 | 1.0 | 3.0 | 0.00 | 0.00 | 0.00 | 68 | 1017.7 |
| 20260906034728 | 80 | 175 | 2.0 | 2.0 | 0.00 | 0.00 | 0.00 | 69 | 1017.7 |
| 20260906034222 | 79 | 180 | 1.0 | 2.0 | 0.00 | 0.00 | 0.00 | 70 | 1017.7 |
| 20260906033713 | 79 | 180 | 2.0 | 2.0 | 0.00 | 0.00 | 0.00 | 70 | 1017.5 |
| 20260906033213 | 80 | 186 | 1.0 | 2.0 | 0.00 | 0.00 | 0.00 | 70 | 1017.6 |
| 20260906032710 | 80 | 180 | 0.0 | 2.0 | 0.00 | 0.00 | 0.00 | 68 | 1017.7 |
| 20260906032209 | 80 | 180 | 2.0 | 3.0 | 0.00 | 0.00 | 0.00 | 69 | 1017.6 |
| 20260906031705 | 80 | 188 | 2.0 | 3.0 | 0.00 | 0.00 | 0.00 | 71 | 1017.7 |
| 20260906031200 | 79 | 152 | 2.0 | 6.0 | 0.00 | 0.00 | 0.00 | 72 | 1017.7 |
| 20260906030700 | 80 | 198 | 1.0 | 3.0 | 0.00 | 0.00 | 0.00 | 72 | 1017.4 |
| 20260906030155 | 81 | 270 | 0.0 | 1.0 | 0.00 | 0.00 | 0.00 | 70 | 1017.4 |
| 20260906025654 | 81 | 324 | 0.0 | 2.0 | 0.00 | 0.00 | 0.00 | 69 | 1017.3 |
| 20260906025154 | 81 | 350 | 3.0 | 4.0 | 0.00 | 0.00 | 0.00 | 69 | 1017.5 |
| 20260906024648 | 81 | 188 | 0.0 | 1.0 | 0.00 | 0.00 | 0.00 | 67 | 1017.3 |
| 20260906024147 | 81 | 246 | 0.0 | 0.0 | 0.00 | 0.00 | 0.00 | 67 | 1017.3 |
| 20260906023644 | 81 | 246 | 0.0 | 0.0 | 0.00 | 0.00 | 0.00 | 67 | 1017.2 |
| 20260906023143 | 81 | 180 | 0.0 | 0.0 | 0.00 | 0.00 | 0.00 | 68 | 1017.3 |
| 20260906022638 | 81 | 206 | 0.0 | 0.0 | 0.00 | 0.00 | 0.00 | 68 | 1017.1 |
| 20260906022135 | 81 | 240 | 0.0 | 2.0 | 0.00 | 0.00 | 0.00 | 68 | 1017.2 |
| 20260906021630 | 82 | 195 | 1.0 | 2.0 | 0.00 | 0.00 | 0.00 | 67 | 1017.1 |
| 20260906021128 | 82 | 180 | 0.0 | 1.0 | 0.00 | 0.00 | 0.00 | 66 | 1016.9 |
| 20260906020623 | 82 | 200 | 0.0 | 1.0 | 0.00 | 0.00 | 0.00 | 66 | 1016.8 |
| 20260906020118 | 83 | 157 | 0.0 | 2.0 | 0.00 | 0.00 | 0.00 | 64 | 1016.8 |
| 20260906015613 | 84 | 195 | 0.0 | 1.0 | 0.00 | 0.00 | 0.00 | 63 | 1016.9 |
| 20260906015111 | 84 | 279 | 0.0 | 0.0 | 0.00 | 0.00 | 0.00 | 62 | 1016.7 |
| 20260906014606 | 84 | 279 | 0.0 | 0.0 | 0.00 | 0.00 | 0.00 | 63 | 1016.7 |
| 20260906014103 | 84 | 151 | 0.0 | 0.0 | 0.00 | 0.00 | 0.00 | 62 | 1016.5 |
| 20260906013557 | 84 | 180 | 0.0 | 0.0 | 0.00 | 0.00 | 0.00 | 62 | 1016.6 |
| 20260906013053 | 84 | 188 | 0.0 | 1.0 | 0.00 | 0.00 | 0.00 | 62 | 1016.5 |
| 20260906012548 | 85 | 200 | 0.0 | 1.0 | 0.00 | 0.00 | 0.00 | 61 | 1016.5 |
| 20260906012047 | 86 | 160 | 0.0 | 1.0 | 0.00 | 0.00 | 0.00 | 59 | 1016.6 |
| 20260906011544 | 86 | 235 | 2.0 | 3.0 | 0.00 | 0.00 | 0.00 | 59 | 1016.4 |
| 20260906011043 | 86 | 180 | 0.0 | 0.0 | 0.00 | 0.00 | 0.00 | 57 | 1016.3 |
| 20260906010539 | 87 | 286 | 0.0 | 0.0 | 0.00 | 0.00 | 0.00 | 58 | 1016.4 |
| 20260906010035 | 87 | 286 | 0.0 | 0.0 | 0.00 | 0.00 | 0.00 | 57 | 1016.1 |
| 20260906005534 | 89 | 270 | 0.0 | 0.0 | 0.00 | 0.00 | 0.00 | 55 | 1016.3 |
| 20260906005033 | 89 | 286 | 0.0 | 0.0 | 0.00 | 0.00 | 0.00 | 53 | 1016.3 |
| 20260906004532 | 91 | 254 | 0.0 | 0.0 | 0.00 | 0.00 | 0.00 | 51 | 1016.0 |
| 20260906004028 | 92 | 254 | 0.0 | 0.0 | 0.00 | 0.00 | 0.00 | 50 | 1016.3 |
| 20260906003523 | 93 | 249 | 0.0 | 1.0 | 0.00 | 0.00 | 0.00 | 47 | 1016.4 |
| 20260906003019 | 95 | 279 | 0.0 | 1.0 | 0.00 | 0.00 | 0.00 | 46 | 1016.1 |
| 20260906002513 | 97 | 254 | 1.0 | 2.0 | 0.00 | 0.00 | 0.00 | 46 | 1016.1 |
| 20260906002008 | 97 | 270 | 0.0 | 1.0 | 0.00 | 0.00 | 0.00 | 42 | 1016.1 |
| 20260906001504 | 98 | 165 | 0.0 | 0.0 | 0.00 | 0.00 | 0.00 | 41 | 1016.1 |
| 20260906000958 | 98 | 165 | 0.0 | 0.0 | 0.00 | 0.00 | 0.00 | 41 | 1016.1 |
| 20260906000455 | 98 | 165 | 0.0 | 0.0 | 0.00 | 0.00 | 0.00 | 41 | 1016.4 |
| 20260905235953 | 98 | 165 | 0.0 | 0.0 | 0.00 | 0.00 | 0.00 | 41 | 1016.3 |
| 20260905235448 | 98 | 131 | 0.0 | 2.0 | 0.00 | 0.00 | 0.00 | 40 | 1016.4 |
| 20260905234943 | 98 | 121 | 0.0 | 3.0 | 0.00 | 0.00 | 0.00 | 40 | 1016.4 |
| 20260905234438 | 100 | 126 | 0.0 | 3.0 | 0.00 | 0.00 | 0.00 | 39 | 1016.3 |
| 20260905233932 | 100 | 132 | 2.0 | 3.0 | 0.00 | 0.00 | 0.00 | 38 | 1016.1 |
| 20260905233428 | 100 | 203 | 0.0 | 3.0 | 0.00 | 0.00 | 0.00 | 37 | 1016.0 |
| 20260905232927 | 100 | 154 | 2.0 | 3.0 | 0.00 | 0.00 | 0.00 | 37 | 1016.4 |
| 20260905232423 | 100 | 133 | 3.0 | 3.0 | 0.00 | 0.00 | 0.00 | 37 | 1016.3 |
| 20260905231918 | 100 | 157 | 1.0 | 3.0 | 0.00 | 0.00 | 0.00 | 38 | 1016.1 |
| 20260905231414 | 99 | 346 | 0.0 | 3.0 | 0.00 | 0.00 | 0.00 | 39 | 1016.3 |
| 20260905230911 | 100 | 128 | 4.0 | 5.0 | 0.00 | 0.00 | 0.00 | 38 | 1016.0 |
| 20260905230408 | 100 | 103 | 0.0 | 2.0 | 0.00 | 0.00 | 0.00 | 40 | 1016.1 |
| 20260905225901 | 97 | 111 | 1.0 | 2.0 | 0.00 | 0.00 | 0.00 | 42 | 1016.0 |
| 20260905225356 | 97 | 140 | 0.0 | 2.0 | 0.00 | 0.00 | 0.00 | 42 | 1016.3 |
| 20260905224846 | 97 | 151 | 0.0 | 1.0 | 0.00 | 0.00 | 0.00 | 41 | 1016.3 |
| 20260905224341 | 98 | 128 | 2.0 | 3.0 | 0.00 | 0.00 | 0.00 | 40 | 1016.1 |
| 20260905223835 | 99 | 355 | 0.0 | 3.0 | 0.00 | 0.00 | 0.00 | 38 | 1015.9 |
| 20260905223333 | 99 | 172 | 0.0 | 2.0 | 0.00 | 0.00 | 0.00 | 38 | 1015.9 |
| 20260905222828 | 98 | 345 | 1.0 | 2.0 | 0.00 | 0.00 | 0.00 | 39 | 1016.1 |
| 20260905222327 | 98 | 340 | 0.0 | 0.0 | 0.00 | 0.00 | 0.00 | 39 | 1016.1 |
| 20260905221823 | 98 | 337 | 0.0 | 2.0 | 0.00 | 0.00 | 0.00 | 39 | 1016.3 |
| 20260905221320 | 98 | 355 | 2.0 | 3.0 | 0.00 | 0.00 | 0.00 | 39 | 1016.3 |
| 20260905220815 | 98 | 355 | 0.0 | 3.0 | 0.00 | 0.00 | 0.00 | 39 | 1016.3 |
| 20260905220311 | 99 | 6 | 1.0 | 3.0 | 0.00 | 0.00 | 0.00 | 39 | 1016.3 |
| 20260905215810 | 99 | 14 | 3.0 | 3.0 | 0.00 | 0.00 | 0.00 | 39 | 1016.5 |
| 20260905215306 | 99 | 353 | 0.0 | 4.0 | 0.00 | 0.00 | 0.00 | 39 | 1016.4 |
| 20260905214802 | 100 | 10 | 4.0 | 7.0 | 0.00 | 0.00 | 0.00 | 38 | 1016.3 |
| 20260905214258 | 103 | 17 | 3.0 | 7.0 | 0.00 | 0.00 | 0.00 | 36 | 1016.4 |
| 20260905213753 | 104 | 352 | 3.0 | 9.0 | 0.00 | 0.00 | 0.00 | 35 | 1016.6 |
| 20260905213249 | 104 | 48 | 4.0 | 7.0 | 0.00 | 0.00 | 0.00 | 34 | 1016.4 |
| 20260905212743 | 104 | 133 | 3.0 | 11.0 | 0.00 | 0.00 | 0.00 | 35 | 1016.6 |
| 20260905212238 | 102 | 117 | 2.0 | 6.0 | 0.00 | 0.00 | 0.00 | 37 | 1016.6 |
| 20260905211737 | 103 | 135 | 8.0 | 10.0 | 0.00 | 0.00 | 0.00 | 35 | 1016.4 |
| 20260905211233 | 102 | 214 | 4.0 | 7.0 | 0.00 | 0.00 | 0.00 | 36 | 1016.8 |
| 20260905210729 | 101 | 102 | 0.0 | 8.0 | 0.00 | 0.00 | 0.00 | 36 | 1016.8 |
| 20260905210229 | 102 | 128 | 6.0 | 7.0 | 0.00 | 0.00 | 0.00 | 36 | 1016.7 |
| 20260905205728 | 102 | 166 | 6.0 | 8.0 | 0.00 | 0.00 | 0.00 | 36 | 1016.8 |
| 20260905205222 | 103 | 132 | 0.0 | 4.0 | 0.00 | 0.00 | 0.00 | 35 | 1017.1 |
| 20260905204716 | 103 | 353 | 4.0 | 4.0 | 0.00 | 0.00 | 0.00 | 35 | 1017.0 |
| 20260905204212 | 103 | 151 | 0.0 | 6.0 | 0.00 | 0.00 | 0.00 | 36 | 1017.1 |
| 20260905203706 | 102 | 326 | 3.0 | 7.0 | 0.00 | 0.00 | 0.00 | 36 | 1017.6 |
| 20260905203202 | 101 | 276 | 3.0 | 5.0 | 0.00 | 0.00 | 0.00 | 38 | 1017.3 |
| 20260905202657 | 100 | 304 | 4.0 | 8.0 | 0.00 | 0.00 | 0.00 | 38 | 1017.4 |
| 20260905202152 | 102 | 8 | 6.0 | 7.0 | 0.00 | 0.00 | 0.00 | 37 | 1017.5 |
| 20260905201648 | 102 | 8 | 5.0 | 9.0 | 0.00 | 0.00 | 0.00 | 37 | 1017.7 |
| 20260905201147 | 102 | 334 | 4.0 | 7.0 | 0.00 | 0.00 | 0.00 | 38 | 1017.8 |
| 20260905200643 | 102 | 5 | 2.0 | 7.0 | 0.00 | 0.00 | 0.00 | 37 | 1017.9 |
| 20260905200138 | 102 | 352 | 0.0 | 6.0 | 0.00 | 0.00 | 0.00 | 37 | 1017.8 |
| 20260905195636 | 103 | 4 | 2.0 | 8.0 | 0.00 | 0.00 | 0.00 | 38 | 1017.9 |
| 20260905195131 | 103 | 53 | 0.0 | 5.0 | 0.00 | 0.00 | 0.00 | 36 | 1017.8 |
| 20260905194627 | 101 | 227 | 3.0 | 4.0 | 0.00 | 0.00 | 0.00 | 37 | 1017.9 |
| 20260905194126 | 100 | 203 | 6.0 | 8.0 | 0.00 | 0.00 | 0.00 | 38 | 1018.0 |
| 20260905193621 | 101 | 177 | 2.0 | 5.0 | 0.00 | 0.00 | 0.00 | 38 | 1017.9 |
| 20260905193116 | 101 | 207 | 3.0 | 11.0 | 0.00 | 0.00 | 0.00 | 38 | 1018.1 |
| 20260905192612 | 101 | 194 | 2.0 | 5.0 | 0.00 | 0.00 | 0.00 | 38 | 1018.3 |
| 20260905192107 | 102 | 330 | 3.0 | 4.0 | 0.00 | 0.00 | 0.00 | 36 | 1018.1 |
| 20260905191606 | 101 | 156 | 3.0 | 5.0 | 0.00 | 0.00 | 0.00 | 38 | 1018.2 |
| 20260905191105 | 100 | 95 | 0.0 | 9.0 | 0.00 | 0.00 | 0.00 | 38 | 1018.3 |
| 20260905190603 | 100 | 346 | 5.0 | 8.0 | 0.00 | 0.00 | 0.00 | 39 | 1018.5 |
| 20260905185601 | 100 | 347 | 3.0 | 6.0 | 0.00 | 0.00 | 0.00 | 40 | 1018.6 |
| 20260905185056 | 99 | 4 | 7.0 | 11.0 | 0.00 | 0.00 | 0.00 | 40 | 1018.7 |
| 20260905184551 | 100 | 304 | 3.0 | 8.0 | 0.00 | 0.00 | 0.00 | 41 | 1018.7 |
| 20260905184049 | 99 | 180 | 2.0 | 8.0 | 0.00 | 0.00 | 0.00 | 42 | 1019.0 |
| 20260905183543 | 98 | 207 | 5.0 | 7.0 | 0.00 | 0.00 | 0.00 | 44 | 1019.0 |
| 20260905183038 | 97 | 233 | 3.0 | 7.0 | 0.00 | 0.00 | 0.00 | 44 | 1019.1 |
| 20260905182532 | 98 | 221 | 2.0 | 7.0 | 0.00 | 0.00 | 0.00 | 42 | 1019.3 |
| 20260905182026 | 99 | 327 | 2.0 | 4.0 | 0.00 | 0.00 | 0.00 | 41 | 1019.1 |
| 20260905181521 | 98 | 41 | 2.0 | 5.0 | 0.00 | 0.00 | 0.00 | 42 | 1019.4 |